Time;durP1;ratioP1;P1;durP2;ratioP2;P2;SDS_P1;SDS_P2;PMS_P1;PMS_P2;Temp;Humidity;BMP_temperature;BMP_pressure;BME280_temperature;BME280_humidity;BME280_pressure;Samples;Min_cycle;Max_cycle;Signal;HPM_P1;HPM_P2
2022/08/25 00:00:44;;;;;;;24.98;11.90;;;;;;;20.25;nan;94902.09;5049048;28;20228;-66
2022/08/25 00:03:11;;;;;;;30.80;12.02;;;;;;;20.39;nan;94901.09;5048785;28;20295;-66
2022/08/25 00:05:38;;;;;;;24.23;11.60;;;;;;;20.45;nan;94899.81;5048727;28;20236;-66
2022/08/25 00:08:06;;;;;;;22.38;10.00;;;;;;;20.43;nan;94902.53;5049401;28;20210;-66
2022/08/25 00:10:34;;;;;;;24.52;11.05;;;;;;;20.36;nan;94894.38;5047660;28;20206;-65
2022/08/25 00:13:02;;;;;;;17.50;8.68;;;;;;;20.35;nan;94890.16;5049367;28;20202;-66
2022/08/25 00:15:30;;;;;;;22.00;9.77;;;;;;;20.29;nan;94882.06;5048959;28;20234;-66
2022/08/25 00:17:58;;;;;;;26.50;10.98;;;;;;;20.30;nan;94897.41;5049387;28;20203;-66
2022/08/25 00:20:26;;;;;;;24.35;10.70;;;;;;;20.13;nan;94887.53;5048319;28;20206;-66
2022/08/25 00:22:52;;;;;;;24.90;10.40;;;;;;;20.11;nan;94884.22;5049219;28;20283;-66
2022/08/25 00:25:19;;;;;;;24.75;9.93;;;;;;;20.10;nan;94880.00;5048756;28;20266;-66
2022/08/25 00:27:47;;;;;;;27.25;10.52;;;;;;;20.19;nan;94881.91;5052755;28;20566;-66
2022/08/25 00:30:15;;;;;;;18.83;10.38;;;;;;;20.14;nan;94881.44;5051022;28;20687;-65
2022/08/25 00:32:42;;;;;;;25.02;11.70;;;;;;;20.37;nan;94892.66;5050462;28;20202;-65
2022/08/25 00:35:10;;;;;;;20.45;10.13;;;;;;;20.69;nan;94885.06;5050638;28;20233;-65
2022/08/25 00:37:37;;;;;;;16.00;9.48;;;;;;;20.82;nan;94885.75;5049278;28;21075;-65
2022/08/25 00:40:05;;;;;;;17.13;11.05;;;;;;;21.01;nan;94893.78;5049299;28;20283;-65
2022/08/25 00:42:31;;;;;;;31.13;8.95;;;;;;;21.46;nan;94883.38;5048776;28;20567;-66
2022/08/25 00:44:58;;;;;;;20.17;9.65;;;;;;;21.75;nan;94883.66;5049671;28;20248;-65
2022/08/25 00:47:25;;;;;;;20.65;9.05;;;;;;;21.78;nan;94892.94;5049312;28;20644;-66
2022/08/25 00:49:56;;;;;;;17.00;9.15;;;;;;;21.68;nan;94895.44;5049511;28;20226;-66
2022/08/25 00:52:27;;;;;;;22.20;10.55;;;;;;;21.87;nan;94905.13;5050717;28;20203;-66
2022/08/25 00:54:58;;;;;;;17.95;9.50;;;;;;;22.08;nan;94895.66;5049620;28;20230;-65
2022/08/25 00:57:30;;;;;;;22.40;12.60;;;;;;;22.15;nan;94907.16;5052051;28;20680;-66
2022/08/25 00:59:57;;;;;;;26.67;10.80;;;;;;;22.05;nan;94906.25;5051945;28;20318;-66
2022/08/25 01:02:24;;;;;;;25.17;14.30;;;;;;;22.04;nan;94899.41;5050819;28;20339;-67
2022/08/25 01:04:51;;;;;;;27.75;16.75;;;;;;;22.09;nan;94886.94;5052041;28;20749;-68
2022/08/25 01:07:21;;;;;;;23.38;12.70;;;;;;;21.89;nan;94879.94;5051369;28;20699;-67
2022/08/25 01:09:52;;;;;;;28.92;14.35;;;;;;;21.85;nan;94863.03;5055921;28;20222;-66
2022/08/25 01:12:20;;;;;;;23.25;9.80;;;;;;;21.54;nan;94862.91;5068682;28;20508;-68
2022/08/25 01:14:46;;;;;;;19.35;9.70;;;;;;;21.35;nan;94860.13;5036833;28;20230;-66
2022/08/25 01:17:14;;;;;;;22.75;9.85;;;;;;;21.52;nan;94871.75;5049560;28;20202;-66
2022/08/25 01:19:41;;;;;;;21.05;11.82;;;;;;;21.69;nan;94877.19;5047013;28;20214;-68
2022/08/25 01:22:10;;;;;;;19.60;9.15;;;;;;;21.84;nan;94869.13;5049160;28;20651;-66
2022/08/25 01:24:42;;;;;;;23.70;9.60;;;;;;;21.80;nan;94870.31;5048927;28;20703;-66
2022/08/25 01:27:10;;;;;;;22.90;12.77;;;;;;;21.96;nan;94863.00;5048996;28;20207;-66
2022/08/25 01:29:37;;;;;;;22.10;12.32;;;;;;;22.20;nan;94863.59;5049726;28;20211;-65
2022/08/25 01:32:06;;;;;;;27.85;8.73;;;;;;;22.04;nan;94870.97;5049158;28;20287;-66
2022/08/25 01:34:39;;;;;;;18.00;9.10;;;;;;;22.05;nan;94876.00;5049563;28;20319;-65
2022/08/25 01:37:06;;;;;;;21.05;8.85;;;;;;;22.12;nan;94876.34;5046021;28;20222;-66
2022/08/25 01:39:35;;;;;;;15.57;8.90;;;;;;;22.21;nan;94870.41;5048148;28;20757;-65
2022/08/25 01:42:24;;;;;;;17.00;8.90;;;;;;;22.43;nan;94879.00;5047636;28;20207;-67
2022/08/25 01:44:51;;;;;;;22.25;9.18;;;;;;;22.59;nan;94863.81;5048775;28;20202;-66
2022/08/25 01:47:18;;;;;;;25.20;9.13;;;;;;;22.69;nan;94864.69;5049033;28;20214;-66
2022/08/25 01:49:45;;;;;;;17.70;8.82;;;;;;;22.68;nan;94865.63;5049713;28;20263;-66
2022/08/25 01:52:16;;;;;;;19.33;7.90;;;;;;;22.28;nan;94866.34;5049709;28;20292;-67
2022/08/25 01:54:44;;;;;;;15.32;8.15;;;;;;;22.31;nan;94860.91;5046474;28;20326;-67
2022/08/25 01:57:11;;;;;;;11.05;7.55;;;;;;;21.69;nan;94861.69;5047998;28;20211;-66
2022/08/25 01:59:38;;;;;;;22.08;8.25;;;;;;;21.68;nan;94870.38;5048735;28;20640;-66
2022/08/25 02:02:05;;;;;;;23.55;7.85;;;;;;;21.52;nan;94876.91;5048805;28;20233;-66
2022/08/25 02:04:32;;;;;;;20.67;8.00;;;;;;;21.51;nan;94872.69;5046962;28;20206;-66
2022/08/25 02:06:59;;;;;;;21.77;8.02;;;;;;;21.67;nan;94866.16;5047281;28;20230;-66
2022/08/25 02:09:26;;;;;;;14.30;8.15;;;;;;;21.83;nan;94862.31;5043795;28;20205;-65
2022/08/25 02:11:55;;;;;;;15.70;8.50;;;;;;;22.03;nan;94861.56;5044784;28;20264;-66
2022/08/25 02:14:22;;;;;;;18.25;8.50;;;;;;;22.16;nan;94862.19;5045958;28;20812;-63
2022/08/25 02:16:51;;;;;;;14.40;7.75;;;;;;;22.31;nan;94862.69;5044512;28;20640;-67
2022/08/25 02:19:20;;;;;;;11.95;7.50;;;;;;;22.32;nan;94859.97;5046654;28;20202;-66
2022/08/25 02:21:48;;;;;;;10.93;7.55;;;;;;;22.34;nan;94852.09;5045474;28;20203;-65
2022/08/25 02:24:15;;;;;;;14.27;7.00;;;;;;;22.47;nan;94855.31;5045994;28;20264;-63
2022/08/25 02:26:42;;;;;;;16.48;7.80;;;;;;;22.59;nan;94845.69;5043715;28;20254;-64
2022/08/25 02:29:11;;;;;;;11.75;6.70;;;;;;;22.56;nan;94845.94;5046029;28;20744;-66
2022/08/25 02:31:38;;;;;;;25.55;7.95;;;;;;;22.51;nan;94845.53;5045789;28;20739;-65
2022/08/25 02:34:05;;;;;;;12.18;6.78;;;;;;;22.46;nan;94853.66;5048000;28;21281;-64
2022/08/25 02:36:32;;;;;;;18.70;7.63;;;;;;;22.40;nan;94852.41;5046010;28;20211;-65
2022/08/25 02:39:00;;;;;;;16.75;7.35;;;;;;;22.23;nan;94847.00;5048096;28;20210;-65
2022/08/25 02:41:27;;;;;;;16.42;7.35;;;;;;;22.30;nan;94848.94;5045597;28;20666;-65
2022/08/25 02:43:54;;;;;;;19.00;7.55;;;;;;;22.35;nan;94857.13;5046233;28;20256;-65
2022/08/25 02:46:23;;;;;;;27.88;8.48;;;;;;;22.23;nan;94854.75;5044530;28;20207;-66
2022/08/25 02:48:51;;;;;;;15.80;7.47;;;;;;;22.02;nan;94852.19;5046023;28;20210;-67
2022/08/25 02:51:18;;;;;;;17.00;8.15;;;;;;;22.17;nan;94850.91;5048317;28;20264;-67
2022/08/25 02:53:45;;;;;;;26.17;8.30;;;;;;;22.42;nan;94852.28;5046180;28;20230;-66
2022/08/25 02:56:14;;;;;;;16.08;7.93;;;;;;;22.36;nan;94858.78;5046337;28;20222;-66
2022/08/25 02:58:43;;;;;;;14.23;7.68;;;;;;;22.36;nan;94860.53;5047737;28;20362;-66
2022/08/25 03:01:10;;;;;;;16.50;7.05;;;;;;;22.34;nan;94860.66;5047287;28;20695;-67
2022/08/25 03:03:40;;;;;;;14.75;7.18;;;;;;;21.99;nan;94865.31;5046985;28;20238;-66
2022/08/25 03:06:08;;;;;;;17.65;7.57;;;;;;;22.13;nan;94872.81;5046353;28;20348;-66
2022/08/25 03:08:34;;;;;;;12.57;7.43;;;;;;;22.00;nan;94867.81;5045829;28;20260;-67
2022/08/25 03:11:01;;;;;;;23.52;7.93;;;;;;;21.64;nan;94868.16;5047552;28;20202;-67
2022/08/25 03:13:28;;;;;;;14.85;7.65;;;;;;;21.56;nan;94863.59;5046391;28;20268;-66
2022/08/25 03:15:55;;;;;;;13.18;8.05;;;;;;;21.52;nan;94862.22;5045996;28;20241;-66
2022/08/25 03:18:22;;;;;;;15.02;8.25;;;;;;;21.63;nan;94859.59;5046635;28;20207;-66
2022/08/25 03:20:50;;;;;;;17.63;7.97;;;;;;;21.76;nan;94858.63;5047172;28;20782;-66
2022/08/25 03:23:17;;;;;;;15.55;7.70;;;;;;;21.93;nan;94860.66;5047696;28;20738;-66
2022/08/25 03:28:31;;;;;;;17.80;7.68;;;;;;;22.00;nan;94869.56;5047511;28;20259;-66
2022/08/25 03:30:59;;;;;;;24.92;8.73;;;;;;;21.78;nan;94861.91;5047085;28;20205;-66
2022/08/25 03:33:25;;;;;;;14.30;6.72;;;;;;;21.77;nan;94861.06;5046002;28;20633;-66
2022/08/25 03:35:54;;;;;;;16.50;7.65;;;;;;;21.98;nan;94864.50;5044306;28;20648;-66
2022/08/25 03:38:21;;;;;;;15.52;8.32;;;;;;;22.11;nan;94864.34;5046613;28;20310;-66
2022/08/25 03:40:48;;;;;;;23.25;8.50;;;;;;;22.20;nan;94873.13;5045895;28;20199;-67
2022/08/25 03:43:16;;;;;;;17.15;8.20;;;;;;;21.98;nan;94866.28;5046480;28;20291;-66
2022/08/25 03:45:43;;;;;;;20.17;7.82;;;;;;;21.81;nan;94866.78;5047757;28;20748;-67
2022/08/25 03:48:11;;;;;;;14.13;7.43;;;;;;;21.56;nan;94863.59;5047772;28;20271;-66
2022/08/25 03:50:43;;;;;;;15.35;7.30;;;;;;;21.53;nan;94858.66;5047108;28;20271;-67
2022/08/25 03:53:11;;;;;;;16.52;8.20;;;;;;;21.56;nan;94858.41;5047586;28;20257;-67
2022/08/25 03:55:38;;;;;;;19.88;7.97;;;;;;;21.53;nan;94857.88;5047253;28;21472;-67
2022/08/25 03:58:05;;;;;;;21.40;8.25;;;;;;;21.67;nan;94863.56;5047480;28;20263;-66
2022/08/25 04:00:31;;;;;;;19.60;8.93;;;;;;;21.68;nan;94849.69;5046936;28;20668;-67
2022/08/25 04:02:58;;;;;;;17.60;7.57;;;;;;;21.36;nan;94857.44;5047231;28;20776;-67
2022/08/25 04:05:25;;;;;;;17.92;8.20;;;;;;;21.47;nan;94855.78;5047025;28;20261;-66
2022/08/25 04:07:51;;;;;;;19.80;8.48;;;;;;;21.42;nan;94850.97;5047242;28;20248;-67
2022/08/25 04:10:20;;;;;;;18.20;9.00;;;;;;;21.45;nan;94842.97;5046170;28;20731;-67
2022/08/25 04:12:48;;;;;;;16.85;7.95;;;;;;;21.61;nan;94845.94;5047580;28;20202;-67
2022/08/25 04:15:15;;;;;;;19.10;8.82;;;;;;;21.84;nan;94851.84;5048342;28;20218;-67
2022/08/25 04:17:42;;;;;;;18.85;8.88;;;;;;;21.73;nan;94852.75;5046297;28;20205;-66
2022/08/25 04:20:11;;;;;;;17.08;8.00;;;;;;;21.76;nan;94863.78;5046502;28;20202;-67
2022/08/25 04:22:38;;;;;;;19.33;8.77;;;;;;;21.65;nan;94862.03;5047333;28;20371;-66
2022/08/25 04:25:07;;;;;;;17.27;7.85;;;;;;;21.36;nan;94859.19;5046963;28;20256;-67
2022/08/25 04:27:36;;;;;;;19.70;9.32;;;;;;;21.42;nan;94861.31;5046920;28;20650;-67
2022/08/25 04:30:05;;;;;;;17.58;8.68;;;;;;;21.18;nan;94855.44;5046200;28;20692;-66
2022/08/25 04:32:32;;;;;;;12.63;8.40;;;;;;;21.16;nan;94844.41;5046216;28;20203;-67
2022/08/25 04:34:58;;;;;;;13.27;8.32;;;;;;;21.48;nan;94844.47;5047235;28;20221;-67
2022/08/25 04:37:25;;;;;;;17.08;7.72;;;;;;;21.56;nan;94836.91;5046703;28;20799;-66
2022/08/25 04:39:52;;;;;;;22.98;8.88;;;;;;;21.69;nan;94845.34;5045764;28;20206;-68
2022/08/25 04:42:20;;;;;;;21.45;9.32;;;;;;;21.81;nan;94851.28;5046966;28;20213;-66
2022/08/25 04:44:48;;;;;;;16.45;9.15;;;;;;;21.92;nan;94859.00;5045855;28;20198;-66
2022/08/25 04:47:15;;;;;;;17.08;8.10;;;;;;;22.08;nan;94858.59;5047716;28;20699;-67
2022/08/25 04:49:42;;;;;;;16.08;9.43;;;;;;;22.22;nan;94858.28;5047122;28;20267;-66
2022/08/25 04:52:09;;;;;;;23.88;9.27;;;;;;;22.41;nan;94866.16;5045934;28;20210;-67
2022/08/25 04:54:35;;;;;;;15.95;9.18;;;;;;;22.46;nan;94858.03;5045599;28;20198;-66
2022/08/25 04:57:02;;;;;;;19.15;9.07;;;;;;;22.66;nan;94870.13;5046886;28;20664;-66
2022/08/25 04:59:29;;;;;;;21.70;9.63;;;;;;;22.87;nan;94870.91;5045597;28;20488;-67
2022/08/25 05:02:00;;;;;;;13.05;8.52;;;;;;;23.13;nan;94873.06;5046223;28;20241;-66
2022/08/25 05:04:27;;;;;;;16.80;8.68;;;;;;;23.31;nan;94866.28;5045871;28;20672;-66
2022/08/25 05:06:54;;;;;;;14.20;8.50;;;;;;;23.42;nan;94866.19;5046223;28;20617;-68
2022/08/25 05:09:21;;;;;;;17.63;7.68;;;;;;;23.53;nan;94866.06;5045432;28;20768;-67
2022/08/25 05:11:48;;;;;;;21.40;8.20;;;;;;;23.76;nan;94865.84;5045956;28;20228;-66
2022/08/25 05:14:17;;;;;;;31.73;9.52;;;;;;;23.95;nan;94860.66;5048807;28;20214;-66
2022/08/25 05:16:43;;;;;;;25.20;9.32;;;;;;;24.06;nan;94852.72;5049671;28;20226;-67
2022/08/25 05:19:11;;;;;;;32.05;9.30;;;;;;;23.78;nan;94859.53;5049516;28;20206;-68
2022/08/25 05:21:39;;;;;;;19.00;9.00;;;;;;;23.78;nan;94856.13;5050194;28;20214;-67
2022/08/25 05:24:06;;;;;;;16.73;8.73;;;;;;;23.56;nan;94852.00;5049642;28;20198;-67
2022/08/25 05:26:35;;;;;;;19.45;8.95;;;;;;;23.31;nan;94845.53;5048098;28;20210;-66
2022/08/25 05:29:04;;;;;;;18.65;7.93;;;;;;;23.18;nan;94850.16;5050094;28;20998;-67
2022/08/25 05:31:31;;;;;;;18.52;10.13;;;;;;;23.21;nan;94850.72;5050258;28;20597;-67
2022/08/25 05:33:58;;;;;;;16.88;9.77;;;;;;;23.27;nan;94851.94;5048695;28;20810;-67
2022/08/25 05:36:28;;;;;;;18.35;9.88;;;;;;;23.38;nan;94847.47;5049193;28;20230;-66
2022/08/25 05:38:55;;;;;;;21.08;9.15;;;;;;;23.48;nan;94852.69;5050479;28;20301;-67
2022/08/25 05:41:26;;;;;;;21.70;9.05;;;;;;;23.79;nan;94848.22;5048915;28;20245;-67
2022/08/25 05:43:53;;;;;;;21.27;8.73;;;;;;;23.95;nan;94851.09;5048153;28;20206;-67
2022/08/25 05:46:20;;;;;;;27.05;8.23;;;;;;;24.19;nan;94849.84;5048809;28;20198;-67
2022/08/25 05:48:48;;;;;;;11.77;8.80;;;;;;;24.45;nan;94858.72;5049558;28;20742;-66
2022/08/25 05:51:16;;;;;;;17.50;8.32;;;;;;;24.82;nan;94848.31;5049898;28;20211;-67
2022/08/25 05:53:46;;;;;;;15.60;8.32;;;;;;;24.91;nan;94855.25;5048597;28;20274;-66
2022/08/25 05:56:14;;;;;;;17.08;9.02;;;;;;;25.12;nan;94856.84;5048393;28;20284;-66
2022/08/25 05:58:41;;;;;;;22.00;8.55;;;;;;;25.06;nan;94851.25;5049823;28;20225;-65
2022/08/25 06:03:53;;;;;;;16.05;7.15;;;;;;;25.34;nan;94851.25;5049576;28;20290;-66
2022/08/25 06:06:21;;;;;;;14.43;8.15;;;;;;;25.32;nan;94859.19;5049471;28;20267;-65
2022/08/25 06:08:49;;;;;;;15.68;8.18;;;;;;;25.39;nan;94849.84;5049612;28;20263;-66
2022/08/25 06:11:16;;;;;;;15.82;8.68;;;;;;;25.74;nan;94849.06;5049789;28;20293;-66
2022/08/25 06:13:44;;;;;;;24.80;7.88;;;;;;;26.32;nan;94858.22;5048307;28;20268;-67
2022/08/25 06:16:11;;;;;;;22.75;8.65;;;;;;;26.76;nan;94853.75;5047974;28;20226;-66
2022/08/25 06:18:38;;;;;;;17.58;8.25;;;;;;;27.05;nan;94861.25;5049998;28;20221;-67
2022/08/25 06:21:11;;;;;;;21.58;8.98;;;;;;;27.15;nan;94850.72;5050681;28;22227;-67
2022/08/25 06:23:38;;;;;;;9.18;8.15;;;;;;;27.61;nan;94852.03;5050377;28;20207;-67
2022/08/25 06:26:09;;;;;;;13.82;7.90;;;;;;;27.94;nan;94843.28;5050164;28;20206;-65
2022/08/25 06:28:36;;;;;;;22.63;7.95;;;;;;;28.46;nan;94842.13;5051281;28;20252;-67
2022/08/25 06:31:03;;;;;;;15.50;7.72;;;;;;;28.95;nan;94842.88;5051386;28;20557;-67
2022/08/25 06:33:30;;;;;;;15.02;7.97;;;;;;;29.61;nan;94839.78;5051444;28;20676;-67
2022/08/25 06:35:58;;;;;;;15.13;8.27;;;;;;;29.66;nan;94847.13;5049754;28;20246;-67
2022/08/25 06:38:25;;;;;;;19.20;7.95;;;;;;;30.24;nan;94848.34;5050768;28;20301;-66
2022/08/25 06:40:53;;;;;;;19.88;7.57;;;;;;;30.38;nan;94847.59;5051207;28;20206;-67
2022/08/25 06:43:22;;;;;;;20.05;7.75;;;;;;;30.45;nan;94843.25;5050779;28;20210;-67
2022/08/25 06:45:49;;;;;;;20.67;7.45;;;;;;;30.74;nan;94850.38;5050500;28;20693;-66
2022/08/25 06:48:16;;;;;;;20.08;7.35;;;;;;;31.96;nan;94841.81;5050134;28;20210;-66
2022/08/25 06:50:43;;;;;;;15.02;8.23;;;;;;;32.71;nan;94840.41;5050332;28;20217;-67
2022/08/25 06:53:10;;;;;;;22.73;8.80;;;;;;;32.18;nan;94839.97;5050663;28;20210;-66
2022/08/25 06:55:37;;;;;;;17.85;7.47;;;;;;;33.00;nan;94831.50;5049672;28;20219;-67
2022/08/25 06:58:04;;;;;;;13.90;6.72;;;;;;;34.01;nan;94843.06;5051035;28;20206;-67
2022/08/25 07:00:33;;;;;;;15.43;7.72;;;;;;;34.04;nan;94837.41;5051093;28;20206;-67
2022/08/25 07:03:00;;;;;;;11.18;7.47;;;;;;;34.80;nan;94835.22;5050164;28;20259;-65
2022/08/25 07:05:28;;;;;;;19.20;7.20;;;;;;;35.71;nan;94838.56;5047569;28;20234;-67
2022/08/25 07:07:55;;;;;;;17.05;7.55;;;;;;;35.18;nan;94834.47;5047276;28;20212;-66
2022/08/25 07:10:22;;;;;;;16.80;7.03;;;;;;;35.19;nan;94828.19;5046583;28;20198;-67
2022/08/25 07:12:49;;;;;;;15.60;7.53;;;;;;;35.60;nan;94836.59;5045658;28;20256;-67
2022/08/25 07:15:16;;;;;;;17.83;6.97;;;;;;;36.13;nan;94823.09;5045934;28;20696;-66
2022/08/25 07:17:44;;;;;;;15.30;6.70;;;;;;;36.30;nan;94832.13;5047400;28;20210;-67
2022/08/25 07:20:11;;;;;;;12.02;7.22;;;;;;;35.89;nan;94834.41;5047034;28;20300;-67
2022/08/25 07:22:39;;;;;;;22.38;7.38;;;;;;;35.01;nan;94834.94;5049004;28;20240;-66
2022/08/25 07:25:08;;;;;;;13.70;7.55;;;;;;;33.30;nan;94840.00;5048819;28;20200;-66
2022/08/25 07:27:34;;;;;;;17.23;7.00;;;;;;;32.66;nan;94840.22;5046920;28;20252;-67
2022/08/25 07:30:01;;;;;;;18.60;6.78;;;;;;;32.58;nan;94835.91;5048456;28;20210;-66
2022/08/25 07:32:28;;;;;;;14.52;7.72;;;;;;;31.95;nan;94834.09;5047464;28;20213;-66
2022/08/25 07:35:14;;;;;;;15.20;7.45;;;;;;;31.18;nan;94839.13;5046158;28;20218;-66
2022/08/25 07:37:41;;;;;;;15.98;8.25;;;;;;;29.99;nan;94837.25;5047485;28;20252;-66
2022/08/25 07:40:10;;;;;;;18.63;8.07;;;;;;;29.59;nan;94833.91;5047750;28;20206;-66
2022/08/25 07:42:37;;;;;;;25.85;8.60;;;;;;;29.00;nan;94835.31;5046874;28;20198;-68
2022/08/25 07:45:05;;;;;;;15.80;8.65;;;;;;;28.53;nan;94840.47;5047502;28;20211;-66
2022/08/25 07:47:32;;;;;;;17.48;9.35;;;;;;;27.94;nan;94837.22;5047180;28;20202;-66
2022/08/25 07:50:00;;;;;;;20.52;8.43;;;;;;;27.58;nan;94842.72;5047825;28;20206;-66
2022/08/25 07:52:27;;;;;;;12.80;9.18;;;;;;;27.24;nan;94844.53;5047424;28;21035;-67
2022/08/25 07:54:55;;;;;;;16.00;8.98;;;;;;;27.13;nan;94837.00;5046572;28;20823;-65
2022/08/25 07:57:25;;;;;;;16.42;8.55;;;;;;;27.52;nan;94832.06;5046731;28;20769;-67
2022/08/25 07:59:51;;;;;;;12.55;8.75;;;;;;;28.16;nan;94831.34;5047029;28;20203;-66
2022/08/25 08:02:18;;;;;;;18.60;8.00;;;;;;;28.50;nan;94839.00;5047251;28;20781;-66
2022/08/25 08:04:47;;;;;;;15.05;7.43;;;;;;;28.83;nan;94833.72;5047041;28;20213;-68
2022/08/25 08:07:16;;;;;;;22.48;7.30;;;;;;;28.93;nan;94835.19;5047133;28;20245;-65
2022/08/25 08:09:43;;;;;;;19.38;7.50;;;;;;;28.86;nan;94836.00;5047053;28;20242;-66
2022/08/25 08:12:10;;;;;;;21.95;8.18;;;;;;;28.44;nan;94834.47;5047584;28;20214;-66
2022/08/25 08:14:37;;;;;;;17.80;8.38;;;;;;;28.67;nan;94824.94;5046501;28;20791;-66
2022/08/25 08:17:06;;;;;;;19.00;8.45;;;;;;;28.49;nan;94820.88;5046909;28;20753;-69
2022/08/25 08:19:34;;;;;;;20.67;7.32;;;;;;;28.25;nan;94830.38;5047957;28;20224;-67
2022/08/25 08:22:00;;;;;;;20.60;8.15;;;;;;;27.94;nan;94826.78;5047591;28;21415;-67
2022/08/25 08:24:30;;;;;;;22.27;10.82;;;;;;;27.51;nan;94828.63;5047256;28;20214;-65
2022/08/25 08:26:58;;;;;;;16.77;8.18;;;;;;;27.49;nan;94817.53;5046822;28;20706;-66
2022/08/25 08:29:25;;;;;;;12.50;7.07;;;;;;;27.55;nan;94819.50;5046137;28;21475;-67
2022/08/25 08:31:52;;;;;;;22.30;7.90;;;;;;;27.53;nan;94811.03;5046556;28;20326;-67
2022/08/25 08:34:19;;;;;;;17.23;7.00;;;;;;;27.29;nan;94813.56;5048035;28;20202;-67
2022/08/25 08:36:46;;;;;;;23.08;7.38;;;;;;;27.41;nan;94814.94;5046135;28;20517;-68
2022/08/25 08:39:12;;;;;;;21.15;6.88;;;;;;;27.73;nan;94807.16;5045294;28;20727;-68
2022/08/25 08:42:18;;;;;;;22.83;8.45;;;;;;;28.23;nan;94806.19;5046036;28;20687;-67
2022/08/25 08:45:01;;;;;;;16.00;8.15;;;;;;;28.70;nan;94808.09;5045924;28;20292;-67
2022/08/25 08:47:40;;;;;;;27.55;8.13;;;;;;;28.89;nan;94799.88;5047673;28;20206;-67
2022/08/25 08:50:21;;;;;;;20.30;7.43;;;;;;;29.02;nan;94802.75;5048109;28;20238;-67
2022/08/25 08:52:52;;;;;;;27.20;7.20;;;;;;;29.42;nan;94798.34;5048917;28;20722;-67
2022/08/25 08:55:27;;;;;;;24.33;8.65;;;;;;;29.49;nan;94798.44;5050336;28;20676;-67
2022/08/25 08:57:58;;;;;;;25.95;8.27;;;;;;;28.93;nan;94788.09;5050440;28;20294;-67
2022/08/25 09:00:25;;;;;;;20.45;7.38;;;;;;;29.00;nan;94798.69;5050011;28;20210;-65
2022/08/25 09:03:00;;;;;;;24.17;6.97;;;;;;;29.22;nan;94789.25;5051651;28;20240;-66
2022/08/25 09:05:29;;;;;;;34.95;7.53;;;;;;;29.55;nan;94788.09;5049230;28;20225;-66
2022/08/25 09:07:59;;;;;;;25.65;6.72;;;;;;;28.86;nan;94797.59;5050519;28;20206;-66
2022/08/25 09:10:34;;;;;;;22.88;6.70;;;;;;;28.51;nan;94782.31;5050778;28;20304;-67
2022/08/25 09:13:12;;;;;;;28.48;7.97;;;;;;;28.63;nan;94788.81;5051002;28;20206;-68
2022/08/25 09:18:44;;;;;;;24.30;8.30;;;;;;;28.14;nan;94788.88;5049232;28;20249;-66
2022/08/25 09:21:17;;;;;;;31.13;6.90;;;;;;;27.40;nan;94787.19;5050464;28;20602;-66
2022/08/25 09:24:01;;;;;;;20.92;6.53;;;;;;;27.17;nan;94791.38;5050085;28;20267;-66
2022/08/25 09:26:35;;;;;;;42.85;7.13;;;;;;;26.89;nan;94794.19;5050172;28;20277;-67
2022/08/25 09:29:08;;;;;;;27.58;6.05;;;;;;;26.62;nan;94790.00;5049963;28;20202;-66
2022/08/25 09:31:37;;;;;;;28.15;7.70;;;;;;;26.68;nan;94791.16;5050009;28;20265;-66
2022/08/25 09:34:07;;;;;;;24.23;6.32;;;;;;;26.54;nan;94786.53;5049112;28;20206;-66
2022/08/25 09:36:34;;;;;;;28.63;6.43;;;;;;;26.76;nan;94784.19;5048666;28;20683;-65
2022/08/25 09:39:01;;;;;;;32.22;6.00;;;;;;;27.46;nan;94783.13;5050268;28;20213;-66
2022/08/25 09:41:41;;;;;;;29.77;6.78;;;;;;;27.99;nan;94777.44;5049804;28;20264;-66
2022/08/25 09:44:17;;;;;;;21.52;5.28;;;;;;;27.64;nan;94783.84;5050231;28;20198;-65
2022/08/25 09:47:00;;;;;;;20.00;5.45;;;;;;;27.36;nan;94775.44;5049140;28;20635;-66
2022/08/25 09:49:35;;;;;;;37.30;6.47;;;;;;;27.41;nan;94773.19;5048495;28;20241;-64
2022/08/25 09:52:20;;;;;;;29.90;6.68;;;;;;;27.42;nan;94780.03;5047561;28;20210;-66
2022/08/25 09:54:49;;;;;;;43.38;7.00;;;;;;;27.19;nan;94784.22;5048235;28;20213;-67
2022/08/25 09:57:28;;;;;;;29.85;7.60;;;;;;;27.13;nan;94777.03;5047659;28;20325;-67
2022/08/25 09:59:56;;;;;;;30.02;10.52;;;;;;;27.13;nan;94783.06;5049451;28;20208;-66
2022/08/25 10:02:27;;;;;;;32.40;5.72;;;;;;;27.09;nan;94785.16;5048575;28;20233;-68
2022/08/25 10:04:54;;;;;;;32.15;5.82;;;;;;;27.14;nan;94781.25;5048521;28;20672;-65
2022/08/25 10:07:27;;;;;;;35.13;7.63;;;;;;;27.24;nan;94784.53;5048749;28;20198;-67
2022/08/25 10:09:55;;;;;;;40.35;5.50;;;;;;;27.55;nan;94779.53;5047672;28;20684;-65
2022/08/25 10:12:28;;;;;;;24.67;6.28;;;;;;;27.80;nan;94783.00;5048945;28;20198;-65
2022/08/25 10:14:57;;;;;;;26.05;6.50;;;;;;;27.62;nan;94773.56;5047472;28;20367;-65
2022/08/25 10:17:26;;;;;;;32.95;7.72;;;;;;;27.71;nan;94774.38;5046300;28;20254;-64
2022/08/25 10:19:55;;;;;;;22.38;8.30;;;;;;;27.66;nan;94764.41;5046142;28;20213;-66
2022/08/25 10:22:30;;;;;;;24.08;6.38;;;;;;;27.44;nan;94778.06;5045432;28;20323;-66
2022/08/25 10:24:57;;;;;;;38.47;7.05;;;;;;;27.45;nan;94766.66;5046164;28;20206;-66
2022/08/25 10:27:40;;;;;;;26.05;5.32;;;;;;;27.37;nan;94767.44;5045958;28;20557;-64
2022/08/25 10:30:17;;;;;;;40.65;6.68;;;;;;;27.08;nan;94767.88;5045274;28;20684;-66
2022/08/25 10:33:08;;;;;;;30.63;5.78;;;;;;;27.02;nan;94765.91;5046252;28;20217;-66
2022/08/25 10:35:47;;;;;;;13.38;4.40;;;;;;;26.91;nan;94770.56;5046402;28;20788;-66
2022/08/25 10:38:33;;;;;;;24.10;4.68;;;;;;;26.69;nan;94766.75;5046170;28;20783;-65
2022/08/25 10:41:09;;;;;;;32.58;4.93;;;;;;;26.55;nan;94769.91;5047100;28;20229;-67
2022/08/25 10:43:43;;;;;;;24.98;4.65;;;;;;;26.60;nan;94763.28;5047633;28;20207;-65
2022/08/25 10:46:16;;;;;;;27.90;5.65;;;;;;;26.92;nan;94762.59;5047380;28;20222;-65
2022/08/25 10:48:52;;;;;;;23.35;4.78;;;;;;;27.33;nan;94752.28;5048637;28;20198;-63
2022/08/25 10:51:38;;;;;;;17.60;5.03;;;;;;;27.72;nan;94748.09;5047477;28;20292;-66
2022/08/25 10:54:13;;;;;;;25.67;4.55;;;;;;;27.82;nan;94749.72;5048438;28;20213;-66
2022/08/25 10:56:43;;;;;;;26.27;5.30;;;;;;;27.88;nan;94754.28;5048637;28;20206;-66
2022/08/25 10:59:24;;;;;;;24.42;4.40;;;;;;;27.99;nan;94749.53;5047716;28;20515;-67
2022/08/25 11:02:25;;;;;;;25.50;5.15;;;;;;;27.42;nan;94756.53;5047535;28;20262;-68
2022/08/25 11:04:58;;;;;;;36.83;6.05;;;;;;;27.35;nan;94747.72;5046830;28;20213;-67
2022/08/25 11:07:28;;;;;;;17.50;4.90;;;;;;;27.45;nan;94743.16;5047718;28;20206;-67
2022/08/25 11:10:02;;;;;;;27.70;4.93;;;;;;;27.59;nan;94745.16;5048067;28;20283;-66
2022/08/25 11:12:32;;;;;;;35.30;5.75;;;;;;;27.89;nan;94742.88;5047318;28;20272;-67
2022/08/25 11:15:02;;;;;;;16.58;4.43;;;;;;;28.21;nan;94740.22;5046300;28;20202;-66
2022/08/25 11:17:39;;;;;;;22.17;3.80;;;;;;;27.42;nan;94727.84;5047658;28;20303;-66
2022/08/25 11:20:12;;;;;;;26.52;4.55;;;;;;;26.89;nan;94730.78;5046491;28;20954;-67
2022/08/25 11:22:44;;;;;;;29.95;6.88;;;;;;;26.90;nan;94722.81;5046819;28;20230;-66
2022/08/25 11:25:17;;;;;;;19.45;5.03;;;;;;;26.92;nan;94731.28;5046253;28;20206;-66
2022/08/25 11:27:48;;;;;;;26.50;5.22;;;;;;;27.05;nan;94731.66;5046786;28;20210;-68
2022/08/25 11:30:18;;;;;;;30.15;6.45;;;;;;;27.28;nan;94728.44;5047325;28;20283;-67
2022/08/25 11:32:50;;;;;;;27.20;6.90;;;;;;;27.13;nan;94711.81;5047315;28;20210;-66
2022/08/25 11:35:19;;;;;;;28.92;6.53;;;;;;;27.23;nan;94722.88;5046567;28;20344;-67
2022/08/25 11:38:12;;;;;;;23.70;7.00;;;;;;;27.54;nan;94715.25;5046423;28;20766;-66
2022/08/25 11:40:51;;;;;;;27.73;5.43;;;;;;;27.83;nan;94718.22;5046472;28;20210;-67
2022/08/25 11:43:36;;;;;;;28.42;5.32;;;;;;;27.88;nan;94707.28;5046339;28;20252;-67
2022/08/25 11:46:35;;;;;;;31.52;12.00;;;;;;;28.41;nan;94699.69;5046749;28;20688;-67
2022/08/25 11:49:22;;;;;;;13.50;4.45;;;;;;;28.26;nan;94711.81;5047427;28;20302;-65
2022/08/25 11:51:51;;;;;;;19.98;4.45;;;;;;;28.17;nan;94706.75;5047733;28;21050;-66
2022/08/25 11:54:25;;;;;;;22.80;4.68;;;;;;;28.17;nan;94712.78;5046202;28;20198;-65
2022/08/25 11:56:57;;;;;;;20.00;4.55;;;;;;;28.27;nan;94697.75;5046412;28;20299;-66
2022/08/25 12:00:01;;;;;;;30.17;5.10;;;;;;;28.51;nan;94698.66;5046463;28;20209;-66
2022/08/25 12:02:32;;;;;;;16.05;4.85;;;;;;;28.21;nan;94687.97;5045990;28;20238;-66